createdAt,value
2022-07-28T00:02:25.509Z,16.11
2022-07-28T00:04:52.065Z,16.03
2022-07-28T00:07:18.677Z,16.07
2022-07-28T00:09:45.135Z,16.07
2022-07-28T00:12:11.673Z,16.03
2022-07-28T00:14:38.197Z,16.00
2022-07-28T00:17:04.646Z,16.00
2022-07-28T00:19:31.252Z,15.99
2022-07-28T00:21:57.719Z,15.99
2022-07-28T00:24:24.409Z,15.97
2022-07-28T00:26:50.885Z,15.96
2022-07-28T00:29:17.744Z,15.94
2022-07-28T00:31:44.321Z,15.97
2022-07-28T00:34:12.355Z,15.96
2022-07-28T00:36:39.251Z,15.91
2022-07-28T00:39:05.731Z,15.85
2022-07-28T00:41:32.694Z,15.87
2022-07-28T00:43:59.440Z,15.79
2022-07-28T00:46:25.966Z,15.81
2022-07-28T00:48:54.229Z,15.79
2022-07-28T00:51:24.557Z,15.75
2022-07-28T00:53:52.679Z,15.74
2022-07-28T00:56:19.983Z,15.69
2022-07-28T00:58:47.329Z,15.64
2022-07-28T01:01:17.660Z,15.63
2022-07-28T01:03:46.634Z,15.68
2022-07-28T01:06:32.498Z,15.66
2022-07-28T01:09:40.268Z,15.60
2022-07-28T01:12:25.716Z,15.52
2022-07-28T01:15:01.299Z,15.46
2022-07-28T01:17:49.897Z,15.41
2022-07-28T01:20:21.085Z,15.47
2022-07-28T01:23:26.460Z,15.45
2022-07-28T01:26:16.110Z,15.49
2022-07-28T01:28:57.864Z,15.48
2022-07-28T01:31:26.764Z,15.47
2022-07-28T01:33:59.367Z,15.41
2022-07-28T01:36:37.017Z,15.41
2022-07-28T01:39:04.004Z,15.37
2022-07-28T01:41:33.804Z,15.31
2022-07-28T01:44:08.534Z,15.30
2022-07-28T01:46:37.278Z,15.28
2022-07-28T01:49:05.151Z,15.23
2022-07-28T01:51:33.840Z,15.18
2022-07-28T01:54:02.793Z,15.18
2022-07-28T01:56:33.030Z,15.12
2022-07-28T01:59:06.009Z,15.05
2022-07-28T02:01:36.784Z,15.06
2022-07-28T02:04:06.659Z,15.05
2022-07-28T02:06:34.301Z,15.03
2022-07-28T02:09:03.665Z,15.02
2022-07-28T02:11:40.752Z,14.96
2022-07-28T02:14:16.428Z,14.95
2022-07-28T02:16:47.057Z,14.97
2022-07-28T02:19:14.554Z,14.85
2022-07-28T02:21:42.761Z,14.86
2022-07-28T02:24:12.310Z,14.83
2022-07-28T02:26:44.593Z,14.82
2022-07-28T02:29:33.355Z,14.80
2022-07-28T02:32:27.248Z,14.77
2022-07-28T02:34:58.943Z,14.70
2022-07-28T02:37:26.744Z,14.69
2022-07-28T02:40:00.388Z,14.68
2022-07-28T02:42:31.066Z,14.66
2022-07-28T02:45:00.755Z,14.70
2022-07-28T02:47:30.329Z,14.71
2022-07-28T02:50:01.025Z,14.70
2022-07-28T02:52:28.788Z,14.69
2022-07-28T02:54:57.547Z,14.70
2022-07-28T02:57:26.143Z,14.63
2022-07-28T02:59:54.023Z,14.60
2022-07-28T03:02:22.096Z,14.61
2022-07-28T03:05:02.200Z,14.52
2022-07-28T03:07:30.886Z,14.49
2022-07-28T03:09:59.096Z,14.47
2022-07-28T03:12:26.568Z,14.44
2022-07-28T03:14:53.245Z,14.43
2022-07-28T03:17:20.024Z,14.37
2022-07-28T03:19:46.594Z,14.35
2022-07-28T03:22:14.320Z,14.40
2022-07-28T03:24:44.564Z,14.38
2022-07-28T03:27:28.098Z,14.36
2022-07-28T03:30:05.044Z,14.27
2022-07-28T03:32:35.154Z,14.26
2022-07-28T03:35:02.458Z,14.24
2022-07-28T03:37:35.758Z,14.17
2022-07-28T03:40:04.161Z,14.14
2022-07-28T03:42:30.829Z,14.14
2022-07-28T03:44:57.393Z,14.11
2022-07-28T03:47:24.974Z,14.05
2022-07-28T03:49:51.645Z,14.11
2022-07-28T03:52:19.115Z,14.10
2022-07-28T03:54:45.687Z,14.11
2022-07-28T03:57:12.137Z,14.12
2022-07-28T03:59:38.764Z,14.11
2022-07-28T04:02:06.560Z,14.08
2022-07-28T04:04:33.147Z,14.06
2022-07-28T04:06:59.681Z,14.04
2022-07-28T04:09:26.269Z,14.02
2022-07-28T04:11:52.725Z,14.00
2022-07-28T04:14:19.523Z,13.95
2022-07-28T04:16:46.613Z,13.97
2022-07-28T04:19:13.129Z,14.01
2022-07-28T04:21:39.580Z,14.03
2022-07-28T04:24:06.948Z,14.08
2022-07-28T04:26:33.486Z,14.10
2022-07-28T04:28:59.971Z,14.16
2022-07-28T04:31:30.276Z,14.13
2022-07-28T04:33:56.909Z,14.18
2022-07-28T04:36:23.370Z,14.27
2022-07-28T04:38:49.899Z,14.39
2022-07-28T04:41:16.320Z,14.28
2022-07-28T04:43:43.310Z,14.20
2022-07-28T04:46:14.583Z,14.21
2022-07-28T04:48:41.611Z,14.19
2022-07-28T04:51:08.247Z,14.17
2022-07-28T04:53:35.133Z,14.20
2022-07-28T04:56:01.603Z,14.23
2022-07-28T04:58:29.433Z,14.32
2022-07-28T05:00:57.574Z,14.32
2022-07-28T05:03:24.176Z,14.33
2022-07-28T05:05:53.429Z,14.37
2022-07-28T05:08:21.989Z,14.44
2022-07-28T05:10:53.041Z,14.52
2022-07-28T05:13:19.523Z,14.52
2022-07-28T05:15:46.281Z,14.55
2022-07-28T05:18:12.773Z,14.75
2022-07-28T05:20:39.195Z,14.89
2022-07-28T05:23:05.702Z,15.08
2022-07-28T05:25:32.239Z,15.19
2022-07-28T05:27:58.794Z,15.35
2022-07-28T05:30:25.465Z,15.46
2022-07-28T05:32:53.822Z,15.58
2022-07-28T05:35:20.555Z,15.87
2022-07-28T05:37:47.260Z,16.09
2022-07-28T05:40:15.339Z,16.11
2022-07-28T05:42:43.919Z,16.07
2022-07-28T05:45:15.767Z,15.96
2022-07-28T05:47:48.762Z,16.00
2022-07-28T05:50:16.904Z,15.99
2022-07-28T05:52:44.171Z,15.94
2022-07-28T05:55:11.046Z,15.96
2022-07-28T05:57:38.416Z,15.98
2022-07-28T06:00:14.282Z,16.03
2022-07-28T06:02:41.835Z,16.16
2022-07-28T06:05:08.976Z,16.27
2022-07-28T06:07:42.733Z,16.39
2022-07-28T06:10:15.638Z,16.30
2022-07-28T06:12:44.294Z,16.37
2022-07-28T06:15:15.146Z,16.29
2022-07-28T06:17:42.627Z,16.20
2022-07-28T06:20:10.789Z,16.10
2022-07-28T06:22:45.316Z,16.07
2022-07-28T06:25:16.131Z,16.11
2022-07-28T06:27:42.844Z,16.15
2022-07-28T06:30:10.143Z,16.08
2022-07-28T06:32:36.713Z,15.98
2022-07-28T06:35:04.035Z,16.04
2022-07-28T06:37:30.519Z,16.02
2022-07-28T06:39:57.085Z,16.05
2022-07-28T06:42:23.962Z,16.23
2022-07-28T06:44:59.051Z,16.33
2022-07-28T06:47:26.654Z,16.26
2022-07-28T06:49:53.076Z,16.20
2022-07-28T06:52:20.778Z,16.24
2022-07-28T06:54:50.630Z,16.30
2022-07-28T06:57:22.482Z,16.43
2022-07-28T06:59:55.062Z,16.54
2022-07-28T07:02:26.402Z,16.59
2022-07-28T07:04:54.927Z,16.76
2022-07-28T07:07:22.673Z,16.90
2022-07-28T07:09:49.242Z,17.11
2022-07-28T07:12:15.751Z,17.27
2022-07-28T07:14:42.490Z,17.38
2022-07-28T07:17:08.941Z,17.32
2022-07-28T07:19:35.412Z,17.26
2022-07-28T07:22:02.046Z,17.29
2022-07-28T07:24:28.571Z,17.43
2022-07-28T07:26:55.622Z,17.58
2022-07-28T07:29:22.894Z,17.48
2022-07-28T07:31:52.949Z,17.59
2022-07-28T07:34:20.095Z,17.59
2022-07-28T07:36:46.768Z,17.68
2022-07-28T07:39:13.779Z,17.68
2022-07-28T07:41:40.277Z,17.57
2022-07-28T07:44:06.807Z,17.58
2022-07-28T07:46:33.342Z,17.68
2022-07-28T07:48:59.896Z,17.65
2022-07-28T07:51:26.381Z,17.62
2022-07-28T07:53:52.864Z,17.78
2022-07-28T07:56:19.342Z,17.89
2022-07-28T07:58:45.804Z,18.04
2022-07-28T08:01:13.060Z,18.22
2022-07-28T08:03:39.538Z,18.34
2022-07-28T08:06:05.999Z,18.42
2022-07-28T08:08:36.794Z,18.48
2022-07-28T08:11:07.272Z,18.43
2022-07-28T08:13:34.515Z,18.45
2022-07-28T08:16:01.308Z,18.57
2022-07-28T08:18:27.795Z,18.61
2022-07-28T08:20:54.238Z,18.63
2022-07-28T08:23:26.054Z,18.79
2022-07-28T08:25:52.939Z,18.86
2022-07-28T08:28:19.359Z,18.92
2022-07-28T08:30:46.075Z,18.86
2022-07-28T08:33:12.538Z,18.74
2022-07-28T08:35:40.021Z,18.86
2022-07-28T08:38:06.996Z,18.95
2022-07-28T08:40:36.324Z,19.08
2022-07-28T08:43:12.319Z,19.15
2022-07-28T08:45:40.597Z,19.30
2022-07-28T08:48:11.450Z,19.38
2022-07-28T08:50:39.427Z,19.38
2022-07-28T08:53:07.856Z,19.30
2022-07-28T08:55:35.725Z,19.47
2022-07-28T08:58:03.251Z,19.46
2022-07-28T09:00:30.197Z,19.46
2022-07-28T09:02:57.228Z,19.45
2022-07-28T09:05:24.802Z,19.46
2022-07-28T09:07:55.417Z,19.40
2022-07-28T09:10:22.584Z,19.41
2022-07-28T09:12:49.407Z,19.31
2022-07-28T09:15:15.953Z,19.43
2022-07-28T09:17:42.701Z,19.52
2022-07-28T09:20:11.703Z,19.66
2022-07-28T09:23:02.211Z,19.80
2022-07-28T09:25:29.694Z,19.88
2022-07-28T09:27:59.242Z,20.00
2022-07-28T09:30:33.813Z,20.06
2022-07-28T09:33:40.958Z,20.17
2022-07-28T09:36:02.313Z,20.13
2022-07-28T09:38:40.507Z,20.19
2022-07-28T09:41:07.429Z,20.36
2022-07-28T09:43:39.249Z,20.45
2022-07-28T09:46:08.497Z,20.53
2022-07-28T09:48:43.280Z,20.45
2022-07-28T09:51:14.785Z,20.34
2022-07-28T09:53:41.965Z,20.36
2022-07-28T09:56:09.544Z,20.18
2022-07-28T09:58:36.829Z,20.31
2022-07-28T10:01:09.871Z,20.25
2022-07-28T10:03:40.735Z,20.27
2022-07-28T10:06:08.609Z,20.21
2022-07-28T10:08:49.074Z,20.35
2022-07-28T10:11:30.233Z,20.38
2022-07-28T10:13:58.644Z,20.39
2022-07-28T10:16:28.462Z,20.37
2022-07-28T10:18:56.654Z,20.48
2022-07-28T10:21:25.082Z,20.66
2022-07-28T10:23:57.457Z,20.83
2022-07-28T10:26:44.775Z,20.94
2022-07-28T10:29:17.597Z,20.92
2022-07-28T10:32:00.471Z,20.81
2022-07-28T10:34:43.859Z,20.86
2022-07-28T10:37:17.381Z,20.94
2022-07-28T10:39:49.483Z,21.01
2022-07-28T10:42:16.475Z,21.09
2022-07-28T10:44:45.212Z,21.09
2022-07-28T10:47:18.098Z,21.27
2022-07-28T10:49:48.642Z,21.28
2022-07-28T10:52:37.703Z,21.10
2022-07-28T10:55:20.455Z,21.15
2022-07-28T10:58:13.463Z,21.15
2022-07-28T11:00:56.659Z,21.16
2022-07-28T11:03:47.072Z,21.26
2022-07-28T11:06:36.092Z,21.37
2022-07-28T11:09:17.800Z,21.49
2022-07-28T11:11:47.154Z,21.65
2022-07-28T11:14:39.400Z,21.80
2022-07-28T11:17:10.341Z,21.93
2022-07-28T11:20:06.890Z,21.97
2022-07-28T11:22:32.140Z,21.77
2022-07-28T11:25:00.872Z,21.62
2022-07-28T11:27:50.562Z,21.64
2022-07-28T11:30:27.753Z,21.71
2022-07-28T11:32:54.289Z,21.77
2022-07-28T11:35:21.441Z,21.85
2022-07-28T11:38:03.434Z,21.87
2022-07-28T11:40:30.952Z,21.81
2022-07-28T11:43:35.464Z,21.91
2022-07-28T11:46:02.550Z,21.87
2022-07-28T11:48:30.516Z,21.91
2022-07-28T11:51:02.770Z,22.00
2022-07-28T11:53:47.438Z,22.06
2022-07-28T11:56:26.318Z,22.23
2022-07-28T11:58:57.367Z,22.26
2022-07-28T12:01:24.110Z,22.31
2022-07-28T12:03:56.286Z,22.25
2022-07-28T12:06:35.509Z,22.28
2022-07-28T12:09:05.458Z,22.40
2022-07-28T12:11:43.943Z,22.36
2022-07-28T12:14:14.049Z,22.24
2022-07-28T12:16:43.326Z,22.29
2022-07-28T12:19:11.704Z,22.30
2022-07-28T12:21:46.336Z,22.35
2022-07-28T12:24:29.646Z,22.39
2022-07-28T12:26:57.594Z,22.47
2022-07-28T12:29:25.092Z,22.45
2022-07-28T12:32:02.052Z,22.47
2022-07-28T12:34:30.337Z,22.47
2022-07-28T12:36:58.873Z,22.61
2022-07-28T12:39:26.376Z,22.83
2022-07-28T12:42:04.665Z,22.97
2022-07-28T12:44:42.751Z,23.05
2022-07-28T12:47:12.160Z,23.16
2022-07-28T12:49:40.666Z,23.06
2022-07-28T12:52:22.704Z,23.11
2022-07-28T12:54:55.477Z,23.25
2022-07-28T12:57:50.959Z,23.27
2022-07-28T13:00:49.133Z,23.37
2022-07-28T13:03:27.867Z,23.22
2022-07-28T13:06:04.511Z,23.34
2022-07-28T13:08:38.786Z,23.37
2022-07-28T13:11:42.023Z,23.50
2022-07-28T13:13:59.975Z,23.66
2022-07-28T13:16:28.240Z,23.79
2022-07-28T13:19:04.463Z,23.68
2022-07-28T13:21:58.548Z,23.79
2022-07-28T13:24:28.796Z,23.65
2022-07-28T13:26:56.564Z,23.55
2022-07-28T13:29:23.747Z,23.60
2022-07-28T13:31:50.593Z,23.63
2022-07-28T13:34:17.657Z,23.85
2022-07-28T13:36:44.390Z,23.97
2022-07-28T13:39:10.999Z,24.19
2022-07-28T13:41:57.076Z,24.35
2022-07-28T13:44:24.838Z,24.57
2022-07-28T13:46:51.599Z,24.79
2022-07-28T13:49:21.529Z,24.91
2022-07-28T13:51:48.741Z,24.68
2022-07-28T13:54:17.968Z,24.18
2022-07-28T13:56:45.390Z,23.92
2022-07-28T13:59:13.637Z,24.08
2022-07-28T14:01:41.413Z,24.37
2022-07-28T14:04:14.601Z,24.64
2022-07-28T14:06:45.054Z,25.11
2022-07-28T14:09:12.091Z,25.58
2022-07-28T14:11:41.386Z,25.99
2022-07-28T14:14:17.547Z,26.14
2022-07-28T14:16:47.820Z,26.26
2022-07-28T14:19:16.579Z,25.90
2022-07-28T14:21:50.277Z,26.16
2022-07-28T14:24:17.531Z,26.40
2022-07-28T14:26:44.401Z,26.52
2022-07-28T14:29:11.470Z,26.63
2022-07-28T14:31:38.416Z,26.74
2022-07-28T14:34:05.063Z,26.57
2022-07-28T14:36:31.563Z,26.58
2022-07-28T14:38:58.016Z,26.67
2022-07-28T14:41:25.799Z,26.34
2022-07-28T14:43:52.892Z,25.98
2022-07-28T14:46:21.809Z,25.89
2022-07-28T14:48:48.864Z,25.76
2022-07-28T14:51:15.904Z,25.64
2022-07-28T14:53:49.832Z,25.38
2022-07-28T14:56:18.524Z,25.16
2022-07-28T14:58:45.055Z,25.13
2022-07-28T15:01:11.659Z,24.97
2022-07-28T15:03:43.283Z,24.86
2022-07-28T15:06:10.265Z,24.72
2022-07-28T15:08:36.985Z,24.68
2022-07-28T15:11:03.477Z,24.58
2022-07-28T15:13:30.438Z,24.47
2022-07-28T15:15:59.720Z,24.45
2022-07-28T15:18:26.344Z,24.60
2022-07-28T15:20:54.602Z,24.78
2022-07-28T15:23:21.728Z,25.01
2022-07-28T15:25:48.238Z,24.92
2022-07-28T15:28:17.867Z,24.79
2022-07-28T15:30:51.329Z,24.69
2022-07-28T15:33:19.684Z,24.65
2022-07-28T15:35:58.039Z,24.59
2022-07-28T15:38:26.268Z,24.47
2022-07-28T15:40:52.929Z,24.26
2022-07-28T15:43:19.889Z,24.21
2022-07-28T15:45:50.575Z,24.09
2022-07-28T15:48:17.393Z,24.06
2022-07-28T15:50:48.557Z,24.06
2022-07-28T15:53:18.575Z,24.02
2022-07-28T15:55:50.499Z,24.04
2022-07-28T15:58:17.939Z,24.03
2022-07-28T16:00:45.908Z,23.92
2022-07-28T16:03:12.836Z,23.90
2022-07-28T16:05:39.727Z,23.85
2022-07-28T16:08:06.468Z,23.84
2022-07-28T16:10:33.133Z,23.78
2022-07-28T16:12:59.641Z,23.69
2022-07-28T16:15:26.960Z,23.67
2022-07-28T16:17:54.540Z,23.61
2022-07-28T16:20:21.823Z,23.64
2022-07-28T16:22:48.509Z,23.59
2022-07-28T16:25:20.686Z,23.56
2022-07-28T16:27:48.327Z,23.59
2022-07-28T16:30:16.976Z,23.59
2022-07-28T16:32:43.568Z,23.69
2022-07-28T16:35:10.541Z,23.67
2022-07-28T16:37:37.073Z,23.64
2022-07-28T16:40:04.325Z,23.64
2022-07-28T16:42:31.619Z,23.61
2022-07-28T16:44:58.234Z,23.63
2022-07-28T16:47:24.935Z,23.61
2022-07-28T16:49:51.555Z,23.60
2022-07-28T16:52:18.185Z,23.58
2022-07-28T16:54:45.658Z,23.58
2022-07-28T16:57:14.266Z,23.52
2022-07-28T16:59:47.849Z,23.45
2022-07-28T17:02:15.297Z,23.41
2022-07-28T17:04:42.066Z,23.44
2022-07-28T17:07:08.698Z,23.47
2022-07-28T17:09:35.113Z,23.48
2022-07-28T17:12:01.593Z,23.43
2022-07-28T17:14:28.086Z,23.40
2022-07-28T17:16:54.564Z,23.42
2022-07-28T17:19:22.083Z,23.40
2022-07-28T17:21:48.626Z,23.43
2022-07-28T17:24:15.781Z,23.37
2022-07-28T17:27:35.230Z,23.41
2022-07-28T17:29:29.531Z,23.39
2022-07-28T17:31:56.041Z,23.40
2022-07-28T17:34:22.685Z,23.43
2022-07-28T17:36:50.348Z,23.42
2022-07-28T17:39:16.828Z,23.41
2022-07-28T17:41:43.413Z,23.34
2022-07-28T17:44:09.975Z,23.22
2022-07-28T17:46:36.704Z,23.14
2022-07-28T17:49:05.554Z,23.16
2022-07-28T17:51:32.206Z,23.13
2022-07-28T17:53:58.960Z,23.10
2022-07-28T17:56:26.092Z,23.06
2022-07-28T17:58:53.090Z,23.03
2022-07-28T18:01:19.652Z,23.03
2022-07-28T18:03:58.692Z,22.98
2022-07-28T18:06:37.354Z,23.01
2022-07-28T18:09:08.197Z,22.92
2022-07-28T18:11:55.733Z,22.89
2022-07-28T18:14:23.969Z,22.86
2022-07-28T18:16:50.422Z,22.83
2022-07-28T18:19:17.114Z,22.76
2022-07-28T18:21:43.806Z,22.69
2022-07-28T18:24:10.308Z,22.58
2022-07-28T18:26:36.783Z,22.59
2022-07-28T18:29:03.322Z,22.56
2022-07-28T18:31:30.260Z,22.53
2022-07-28T18:33:56.885Z,22.47
2022-07-28T18:36:23.374Z,22.48
2022-07-28T18:38:49.843Z,22.43
2022-07-28T18:41:17.761Z,22.37
2022-07-28T18:43:44.236Z,22.34
2022-07-28T18:46:11.206Z,22.31
2022-07-28T18:48:38.062Z,22.27
2022-07-28T18:51:05.548Z,22.26
2022-07-28T18:53:32.119Z,22.23
2022-07-28T18:55:58.547Z,22.17
2022-07-28T18:58:24.979Z,22.15
2022-07-28T19:00:51.820Z,22.11
2022-07-28T19:03:18.376Z,22.08
2022-07-28T19:05:46.416Z,22.09
2022-07-28T19:08:13.320Z,22.07
2022-07-28T19:10:40.177Z,22.05
2022-07-28T19:13:09.026Z,21.99
2022-07-28T19:15:39.023Z,21.98
2022-07-28T19:18:10.516Z,21.96
2022-07-28T19:20:39.475Z,21.94
2022-07-28T19:23:06.043Z,21.93
2022-07-28T19:25:35.512Z,21.87
2022-07-28T19:28:02.036Z,21.84
2022-07-28T19:30:30.232Z,21.82
2022-07-28T19:32:56.699Z,21.75
2022-07-28T19:35:23.370Z,21.68
2022-07-28T19:37:50.798Z,21.71
2022-07-28T19:40:17.370Z,21.66
2022-07-28T19:42:43.850Z,21.64
2022-07-28T19:45:10.562Z,21.64
2022-07-28T19:47:37.265Z,21.60
2022-07-28T19:50:05.226Z,21.60
2022-07-28T19:52:31.856Z,21.58
2022-07-28T19:54:58.325Z,21.58
2022-07-28T19:57:25.342Z,21.58
2022-07-28T19:59:51.801Z,21.55
2022-07-28T20:02:18.313Z,21.51
2022-07-28T20:04:44.813Z,21.50
2022-07-28T20:07:11.276Z,21.49
2022-07-28T20:09:37.742Z,21.47
2022-07-28T20:12:04.578Z,21.50
2022-07-28T20:14:34.854Z,21.49
2022-07-28T20:17:01.522Z,21.48
2022-07-28T20:19:28.078Z,21.44
2022-07-28T20:21:54.635Z,21.46
2022-07-28T20:24:21.218Z,21.43
2022-07-28T20:26:47.648Z,21.41
2022-07-28T20:29:14.556Z,21.38
2022-07-28T20:31:41.012Z,21.36
2022-07-28T20:34:07.682Z,21.41
2022-07-28T20:36:34.635Z,21.39
2022-07-28T20:39:01.286Z,21.34
2022-07-28T20:41:27.741Z,21.31
2022-07-28T20:46:41.273Z,21.31
2022-07-28T20:49:07.999Z,21.29
2022-07-28T20:51:34.563Z,21.25
2022-07-28T20:54:01.026Z,21.25
2022-07-28T20:56:27.454Z,21.25
2022-07-28T20:58:54.129Z,21.22
2022-07-28T21:01:23.332Z,21.19
2022-07-28T21:03:50.009Z,21.19
2022-07-28T21:06:16.484Z,21.18
2022-07-28T21:08:44.857Z,21.18
2022-07-28T21:11:11.942Z,21.14
2022-07-28T21:13:38.399Z,21.11
2022-07-28T21:16:05.079Z,21.05
2022-07-28T21:18:31.596Z,21.06
2022-07-28T21:20:59.577Z,21.14
2022-07-28T21:23:26.219Z,21.11
2022-07-28T21:25:53.311Z,21.10
2022-07-28T21:28:38.440Z,21.12
2022-07-28T21:31:04.984Z,21.10
2022-07-28T21:33:31.632Z,21.06
2022-07-28T21:35:58.344Z,21.04
2022-07-28T21:38:24.837Z,21.03
2022-07-28T21:40:52.450Z,20.99
2022-07-28T21:43:18.985Z,21.02
2022-07-28T21:45:46.636Z,20.97
2022-07-28T21:48:13.209Z,20.99
2022-07-28T21:50:39.653Z,20.97
2022-07-28T21:53:06.159Z,20.95
2022-07-28T21:55:33.202Z,20.94
2022-07-28T21:57:59.750Z,20.92
2022-07-28T22:00:26.344Z,20.89
2022-07-28T22:02:53.396Z,20.91
2022-07-28T22:05:20.296Z,20.86
2022-07-28T22:07:48.213Z,20.85
2022-07-28T22:10:15.193Z,20.80
2022-07-28T22:12:42.022Z,20.81
2022-07-28T22:15:08.856Z,20.80
2022-07-28T22:17:35.305Z,20.76
2022-07-28T22:20:02.422Z,20.69
2022-07-28T22:22:29.376Z,20.71
2022-07-28T22:24:55.957Z,20.69
2022-07-28T22:27:22.979Z,20.67
2022-07-28T22:29:50.026Z,20.64
2022-07-28T22:32:26.682Z,20.64
2022-07-28T22:34:55.341Z,20.59
2022-07-28T22:37:22.118Z,20.59
2022-07-28T22:39:48.614Z,20.53
2022-07-28T22:42:15.169Z,20.55
2022-07-28T22:44:42.026Z,20.51
2022-07-28T22:47:08.559Z,20.53
2022-07-28T22:49:35.121Z,20.49
2022-07-28T22:52:02.145Z,20.47
2022-07-28T22:54:28.584Z,20.44
2022-07-28T22:56:55.018Z,20.36
2022-07-28T22:59:21.818Z,20.38
2022-07-28T23:01:51.928Z,20.34
2022-07-28T23:04:18.764Z,20.32
2022-07-28T23:06:45.697Z,20.32
2022-07-28T23:09:13.136Z,20.28
2022-07-28T23:11:39.706Z,20.29
2022-07-28T23:14:06.244Z,20.23
2022-07-28T23:16:32.791Z,20.20
2022-07-28T23:19:00.355Z,20.18
2022-07-28T23:21:26.865Z,20.13
2022-07-28T23:23:53.451Z,20.08
2022-07-28T23:26:20.272Z,20.05
2022-07-28T23:28:46.779Z,20.06
2022-07-28T23:31:13.343Z,20.07
2022-07-28T23:33:54.530Z,20.01
2022-07-28T23:36:26.521Z,19.99
2022-07-28T23:38:56.526Z,20.00
2022-07-28T23:41:23.313Z,19.99
2022-07-28T23:43:49.945Z,20.00
2022-07-28T23:46:16.481Z,20.00
2022-07-28T23:48:43.522Z,19.97
2022-07-28T23:51:10.459Z,19.95
2022-07-28T23:53:38.059Z,19.95
2022-07-28T23:56:05.277Z,19.96
2022-07-28T23:58:31.872Z,19.93
